< < Back
Terminal Aerodrome Forecast


Current Version              Previous Versions:   1  2  3  4  5  6  7  8  9  

Terminal Aerodrome Forecast

369
FTUS44 KMRX 241130
TAFCHA
TAF
KCHA 241130Z 2412/2512 VRB03KT P6SM SCT040 BKN070
     FM241700 18005KT P6SM SCT050 BKN200
     FM250100 VRB02KT P6SM FEW060 BKN150
     FM250900 00000KT P6SM BKN060=

Latest METAR

976
SAUS80 KWBC 242100
MTRCHA
METAR KCHA 242053Z VRB05KT 10SM SCT045 BKN250 32/21 A3016 RMK AO2 SLP204
TCU DSNT NW T03220211 58021


USA.gov is the U.S. government's official web portal to all federal, state and local government web resources and services.